Terminal Aerodrome Forecast
Issued by NWS

Home | Current Version | Previous Version | Text Only | Print | Product List | Glossary Off
Versions: 1 2 3 4 5 6 7 8 9 10 11 12 13 14 15 16 17

000
FTUS41 KCLE 190520
TAFFDY
TAF
KFDY 190520Z 1906/2006 00000KT P6SM SKC
     FM190900 25004KT 6SM BR SCT250
      TEMPO 1909/1913 4SM BR
     FM191300 25004KT P6SM SCT250
     FM191600 26006KT P6SM SCT050
     FM192100 27005KT P6SM VCTS SCT040CB BKN120
     FM200500 VRB03KT 4SM BR SCT120=

USA.gov is the U.S. government's official web portal to all federal, state and local government web resources and services.